createdAt,value
2017-11-29T00:02:34.859Z,29.92
2017-11-29T00:17:36.332Z,30.77
2017-11-29T00:32:34.703Z,28.05
2017-11-29T00:47:35.182Z,29.58
2017-11-29T01:02:34.650Z,27.80
2017-11-29T01:17:35.143Z,25.42
2017-11-29T01:32:35.093Z,23.75
2017-11-29T01:47:34.399Z,18.30
2017-11-29T02:02:37.302Z,20.08
2017-11-29T02:17:36.738Z,18.42
2017-11-29T02:32:35.286Z,17.08
2017-11-29T02:47:34.657Z,17.00
2017-11-29T03:02:34.606Z,16.23
2017-11-29T03:17:34.526Z,15.77
2017-11-29T03:32:34.424Z,16.55
2017-11-29T03:47:34.757Z,16.25
2017-11-29T04:02:35.702Z,16.30
2017-11-29T04:17:34.717Z,15.27
2017-11-29T04:32:34.603Z,19.25
2017-11-29T04:47:35.014Z,18.42
2017-11-29T05:02:35.004Z,18.65
2017-11-29T05:17:37.489Z,20.70
2017-11-29T05:32:34.800Z,20.67
2017-11-29T05:47:35.269Z,20.45
2017-11-29T06:02:36.678Z,21.90
2017-11-29T06:17:35.039Z,21.00
2017-11-29T06:32:35.063Z,21.90
2017-11-29T06:47:34.491Z,23.80
2017-11-29T07:02:36.449Z,26.67
2017-11-29T07:17:34.160Z,32.37
2017-11-29T07:32:34.592Z,37.23
2017-11-29T07:47:35.930Z,40.73
2017-11-29T08:02:33.924Z,40.13
2017-11-29T08:17:34.508Z,42.50
2017-11-29T08:32:34.583Z,49.90
2017-11-29T08:47:34.977Z,51.00
2017-11-29T09:02:34.827Z,47.17
2017-11-29T09:17:34.075Z,42.57
2017-11-29T09:32:35.701Z,31.47
2017-11-29T09:47:34.390Z,32.13
2017-11-29T10:02:37.318Z,24.17
2017-11-29T10:17:35.697Z,55.20
2017-11-29T10:32:34.883Z,57.87
2017-11-29T10:47:38.295Z,57.67
2017-11-29T11:02:35.240Z,52.33
2017-11-29T11:17:34.220Z,52.43
2017-11-29T11:32:34.350Z,52.00
2017-11-29T11:47:36.472Z,52.83
2017-11-29T12:02:37.430Z,51.00
2017-11-29T12:17:33.735Z,48.80
2017-11-29T12:32:35.259Z,41.97
2017-11-29T12:47:40.238Z,35.00
2017-11-29T13:02:35.632Z,19.00
2017-11-29T13:17:36.661Z,16.87
2017-11-29T13:32:36.499Z,17.20
2017-11-29T13:47:34.969Z,19.10
2017-11-29T14:02:36.867Z,32.17
2017-11-29T14:17:36.849Z,55.10
2017-11-29T14:32:34.667Z,49.83
2017-11-29T14:47:37.146Z,51.90
2017-11-29T15:02:37.019Z,39.97
2017-11-29T15:17:36.041Z,36.93
2017-11-29T15:32:35.105Z,38.77
2017-11-29T15:47:34.339Z,40.00
2017-11-29T16:02:37.323Z,40.33
2017-11-29T16:17:35.274Z,69.03
2017-11-29T16:32:38.178Z,117.67
2017-11-29T16:47:35.085Z,123.00
2017-11-29T17:02:34.527Z,110.33
2017-11-29T17:17:34.412Z,106.25
2017-11-29T17:32:33.873Z,112.18
2017-11-29T17:47:37.517Z,103.60
2017-11-29T18:02:34.704Z,95.60
2017-11-29T18:17:35.186Z,131.68
2017-11-29T18:32:35.676Z,119.13
2017-11-29T18:47:35.069Z,125.10
2017-11-29T19:02:37.002Z,132.98
2017-11-29T19:17:38.772Z,126.68
2017-11-29T19:32:34.919Z,108.65
2017-11-29T19:47:35.261Z,79.72
2017-11-29T20:02:37.080Z,79.93
2017-11-29T20:17:35.104Z,94.22
2017-11-29T20:32:36.984Z,79.53
2017-11-29T20:47:34.424Z,97.85
2017-11-29T21:02:34.422Z,87.03
2017-11-29T21:17:34.359Z,90.93
2017-11-29T21:32:35.333Z,118.65
2017-11-29T21:47:36.624Z,113.50
2017-11-29T22:02:34.621Z,112.37
2017-11-29T22:17:34.479Z,114.45
2017-11-29T22:32:34.434Z,100.12
2017-11-29T22:47:36.835Z,107.78
2017-11-29T23:02:35.112Z,141.73
2017-11-29T23:17:34.751Z,133.90
2017-11-29T23:32:34.713Z,135.43
2017-11-29T23:47:37.117Z,124.87
